createdAt,value
2022-08-05T00:02:07.868Z,100.00
2022-08-05T00:06:01.593Z,100.00
2022-08-05T00:08:37.538Z,100.00
2022-08-05T00:11:56.123Z,100.00
2022-08-05T00:15:54.166Z,100.00
2022-08-05T00:18:22.630Z,100.00
2022-08-05T00:21:36.441Z,100.00
2022-08-05T00:24:55.217Z,100.00
2022-08-05T00:28:06.399Z,100.00
2022-08-05T00:31:53.635Z,100.00
2022-08-05T00:34:54.217Z,100.00
2022-08-05T00:37:54.100Z,100.00
2022-08-05T00:41:11.825Z,100.00
2022-08-05T00:44:30.810Z,100.00
2022-08-05T00:47:55.984Z,100.00
2022-08-05T00:50:57.397Z,100.00
2022-08-05T00:54:11.546Z,100.00
2022-08-05T00:57:38.257Z,100.00
2022-08-05T01:00:43.597Z,100.00
2022-08-05T01:03:58.728Z,100.00
2022-08-05T01:07:15.742Z,100.00
2022-08-05T01:10:35.881Z,100.00
2022-08-05T01:13:58.951Z,100.00
2022-08-05T01:17:11.847Z,100.00
2022-08-05T01:20:29.877Z,100.00
2022-08-05T01:23:52.988Z,100.00
2022-08-05T01:27:19.078Z,100.00
2022-08-05T01:30:34.545Z,100.00
2022-08-05T01:33:49.234Z,100.00
2022-08-05T01:37:03.566Z,100.00
2022-08-05T01:40:19.628Z,100.00
2022-08-05T01:43:35.317Z,100.00
2022-08-05T01:46:50.241Z,100.00
2022-08-05T01:50:08.533Z,100.00
2022-08-05T01:53:54.630Z,100.00
2022-08-05T01:58:12.870Z,100.00
2022-08-05T02:00:04.380Z,100.00
2022-08-05T02:03:28.884Z,100.00
2022-08-05T02:06:39.205Z,100.00
2022-08-05T02:09:53.064Z,100.00
2022-08-05T02:13:16.016Z,100.00
2022-08-05T02:16:29.881Z,100.00
2022-08-05T02:19:48.674Z,100.00
2022-08-05T02:23:08.702Z,100.00
2022-08-05T02:26:26.725Z,100.00
2022-08-05T02:30:00.068Z,100.00
2022-08-05T02:33:01.018Z,100.00
2022-08-05T02:36:17.617Z,100.00
2022-08-05T02:39:35.265Z,100.00
2022-08-05T02:42:53.924Z,100.00
2022-08-05T02:46:09.087Z,100.00
2022-08-05T02:49:25.540Z,100.00
2022-08-05T02:52:40.422Z,100.00
2022-08-05T02:56:02.105Z,100.00
2022-08-05T02:59:12.330Z,100.00
2022-08-05T03:02:28.768Z,100.00
2022-08-05T03:06:54.599Z,100.00
2022-08-05T03:09:00.825Z,100.00
2022-08-05T03:12:15.823Z,100.00
2022-08-05T03:15:30.977Z,100.00
2022-08-05T03:18:47.585Z,100.00
2022-08-05T03:22:04.666Z,100.00
2022-08-05T03:26:03.681Z,100.00
2022-08-05T03:28:37.523Z,100.00
2022-08-05T03:31:55.337Z,100.00
2022-08-05T03:35:10.575Z,100.00
2022-08-05T03:38:33.370Z,100.00
2022-08-05T03:41:45.418Z,100.00
2022-08-05T03:44:57.520Z,100.00
2022-08-05T03:48:12.085Z,100.00
2022-08-05T03:52:37.213Z,100.00
2022-08-05T03:55:49.881Z,100.00
2022-08-05T03:58:05.192Z,100.00
2022-08-05T04:01:20.764Z,100.00
2022-08-05T04:04:37.265Z,100.00
2022-08-05T04:07:57.955Z,100.00
2022-08-05T04:11:09.903Z,100.00
2022-08-05T04:14:30.075Z,100.00
2022-08-05T04:17:56.705Z,100.00
2022-08-05T04:21:01.118Z,100.00
2022-08-05T04:24:19.540Z,100.00
2022-08-05T04:27:43.767Z,100.00
2022-08-05T04:30:50.286Z,100.00
2022-08-05T04:34:31.357Z,100.00
2022-08-05T04:37:21.064Z,100.00
2022-08-05T04:40:37.070Z,100.00
2022-08-05T04:43:52.064Z,100.00
2022-08-05T04:47:09.467Z,100.00
2022-08-05T04:50:37.185Z,100.00
2022-08-05T04:53:39.097Z,100.00
2022-08-05T04:56:56.300Z,100.00
2022-08-05T05:00:08.904Z,100.00
2022-08-05T05:03:22.760Z,100.00
2022-08-05T05:06:44.246Z,100.00
2022-08-05T05:09:53.861Z,100.00
2022-08-05T05:13:07.868Z,100.00
2022-08-05T05:16:24.746Z,100.00
2022-08-05T05:19:44.403Z,100.00
2022-08-05T05:22:57.246Z,100.00
2022-08-05T05:26:12.299Z,100.00
2022-08-05T05:29:41.111Z,100.00
2022-08-05T05:32:41.507Z,100.00
2022-08-05T05:35:56.260Z,100.00
2022-08-05T05:39:11.827Z,100.00
2022-08-05T05:42:25.576Z,100.00
2022-08-05T05:45:39.176Z,100.00
2022-08-05T05:48:55.254Z,100.00
2022-08-05T05:52:11.269Z,100.00
2022-08-05T05:55:51.852Z,100.00
2022-08-05T05:58:41.766Z,100.00
2022-08-05T06:01:57.831Z,100.00
2022-08-05T06:05:17.009Z,100.00
2022-08-05T06:08:32.642Z,100.00
2022-08-05T06:11:58.951Z,100.00
2022-08-05T06:15:06.047Z,100.00
2022-08-05T06:18:21.880Z,100.00
2022-08-05T06:21:42.202Z,100.00
2022-08-05T06:24:56.222Z,100.00
2022-08-05T06:28:21.072Z,100.00
2022-08-05T06:31:30.301Z,100.00
2022-08-05T06:34:41.456Z,100.00
2022-08-05T06:37:58.075Z,98.49
2022-08-05T06:41:11.687Z,99.25
2022-08-05T06:44:26.088Z,98.42
2022-08-05T06:48:37.283Z,99.63
2022-08-05T06:50:58.665Z,99.65
2022-08-05T06:54:18.262Z,97.92
2022-08-05T06:57:58.011Z,97.74
2022-08-05T07:00:45.619Z,98.01
2022-08-05T07:04:01.103Z,96.40
2022-08-05T07:07:16.469Z,95.67
2022-08-05T07:10:32.299Z,98.65
2022-08-05T07:14:00.745Z,95.22
2022-08-05T07:17:58.472Z,93.10
2022-08-05T07:20:33.367Z,93.39
2022-08-05T07:23:50.058Z,94.65
2022-08-05T07:27:02.939Z,91.88
2022-08-05T07:30:27.321Z,90.84
2022-08-05T07:33:35.212Z,90.80
2022-08-05T07:36:51.266Z,90.11
2022-08-05T07:40:31.818Z,91.57
2022-08-05T07:43:20.765Z,89.41
2022-08-05T07:46:36.855Z,88.00
2022-08-05T07:49:54.557Z,90.33
2022-08-05T07:53:08.672Z,86.94
2022-08-05T07:56:39.175Z,85.67
2022-08-05T07:59:41.131Z,83.88
2022-08-05T08:03:14.939Z,85.26
2022-08-05T08:06:10.554Z,83.06
2022-08-05T08:09:29.515Z,80.47
2022-08-05T08:12:49.579Z,78.77
2022-08-05T08:16:49.828Z,74.68
2022-08-05T08:20:00.469Z,72.72
2022-08-05T08:22:35.240Z,71.72
2022-08-05T08:25:59.831Z,70.91
2022-08-05T08:29:21.919Z,69.72
2022-08-05T08:32:27.800Z,71.31
2022-08-05T08:35:41.213Z,70.74
2022-08-05T08:38:55.102Z,64.34
2022-08-05T08:42:32.418Z,64.26
2022-08-05T08:45:29.608Z,62.32
2022-08-05T08:49:07.471Z,62.22
2022-08-05T08:52:13.141Z,62.81
2022-08-05T08:55:31.933Z,57.72
2022-08-05T08:58:44.461Z,58.12
2022-08-05T09:01:57.137Z,57.23
2022-08-05T09:05:17.798Z,55.89
2022-08-05T09:08:30.251Z,56.76
2022-08-05T09:11:53.760Z,52.13
2022-08-05T09:15:05.992Z,52.81
2022-08-05T09:18:16.473Z,52.28
2022-08-05T09:22:31.219Z,50.57
2022-08-05T09:24:46.351Z,51.26
2022-08-05T09:28:04.537Z,51.41
2022-08-05T09:32:38.509Z,51.29
2022-08-05T09:34:36.607Z,52.06
2022-08-05T09:38:16.488Z,51.55
2022-08-05T09:41:16.182Z,49.20
2022-08-05T09:44:45.506Z,47.60
2022-08-05T09:48:01.047Z,50.83
2022-08-05T09:51:15.975Z,49.27
2022-08-05T09:54:40.034Z,47.11
2022-08-05T09:57:54.615Z,48.01
2022-08-05T10:01:15.015Z,48.01
2022-08-05T10:04:28.518Z,48.99
2022-08-05T10:08:10.567Z,47.12
2022-08-05T10:11:20.265Z,48.99
2022-08-05T10:14:36.721Z,49.00
2022-08-05T10:17:56.715Z,47.74
2022-08-05T10:21:12.001Z,49.84
2022-08-05T10:24:26.978Z,49.66
2022-08-05T10:28:13.458Z,50.93
2022-08-05T10:32:49.685Z,51.92
2022-08-05T10:34:14.852Z,52.51
2022-08-05T10:37:40.073Z,52.37
2022-08-05T10:40:52.440Z,47.43
2022-08-05T10:44:10.746Z,47.03
2022-08-05T10:47:31.256Z,46.46
2022-08-05T10:50:53.328Z,45.80
2022-08-05T10:54:28.250Z,47.61
2022-08-05T10:57:34.242Z,46.85
2022-08-05T11:00:55.008Z,48.45
2022-08-05T11:04:15.782Z,47.84
2022-08-05T11:07:33.011Z,49.04
2022-08-05T11:10:50.070Z,48.35
2022-08-05T11:14:03.780Z,49.44
2022-08-05T11:17:59.101Z,48.63
2022-08-05T11:20:54.015Z,49.11
2022-08-05T11:24:30.761Z,49.86
2022-08-05T11:27:51.926Z,50.08
2022-08-05T11:31:58.744Z,49.29
2022-08-05T11:34:53.986Z,49.77
2022-08-05T11:38:26.358Z,51.77
2022-08-05T11:41:54.674Z,51.18
2022-08-05T11:44:53.867Z,51.46
2022-08-05T11:48:05.947Z,50.38
2022-08-05T11:51:43.672Z,47.73
2022-08-05T11:54:40.331Z,48.60
2022-08-05T11:58:10.254Z,47.83
2022-08-05T12:01:12.013Z,49.12
2022-08-05T12:04:26.840Z,49.00
2022-08-05T12:08:03.609Z,46.03
2022-08-05T12:10:59.138Z,45.78
2022-08-05T12:14:14.937Z,47.40
2022-08-05T12:18:00.853Z,49.22
2022-08-05T12:20:46.495Z,48.20
2022-08-05T12:24:05.216Z,47.79
2022-08-05T12:27:33.351Z,49.39
2022-08-05T12:30:50.001Z,48.14
2022-08-05T12:34:04.841Z,48.09
2022-08-05T12:37:33.407Z,48.12
2022-08-05T12:40:48.286Z,48.31
2022-08-05T12:44:05.972Z,48.57
2022-08-05T12:47:33.164Z,49.67
2022-08-05T12:50:47.999Z,48.62
2022-08-05T12:54:16.905Z,47.33
2022-08-05T12:57:26.704Z,48.81
2022-08-05T13:02:00.256Z,48.37
2022-08-05T13:04:02.632Z,48.56
2022-08-05T13:07:54.723Z,48.83
2022-08-05T13:10:50.147Z,47.17
2022-08-05T13:14:07.258Z,47.00
2022-08-05T13:17:25.007Z,48.81
2022-08-05T13:20:43.150Z,48.33
2022-08-05T13:23:56.860Z,47.34
2022-08-05T13:27:17.081Z,49.46
2022-08-05T13:30:34.810Z,53.59
2022-08-05T13:34:23.039Z,52.81
2022-08-05T13:37:03.112Z,53.67
2022-08-05T13:40:35.685Z,53.26
2022-08-05T13:43:44.529Z,51.43
2022-08-05T13:47:04.592Z,49.43
2022-08-05T13:50:14.837Z,49.38
2022-08-05T13:53:25.893Z,48.16
2022-08-05T13:56:45.318Z,48.16
2022-08-05T13:59:59.392Z,47.91
2022-08-05T14:03:12.443Z,48.16
2022-08-05T14:06:27.217Z,47.54
2022-08-05T14:09:45.980Z,48.98
2022-08-05T14:12:57.745Z,48.57
2022-08-05T14:16:12.064Z,48.07
2022-08-05T14:19:27.652Z,48.12
2022-08-05T14:22:49.988Z,49.30
2022-08-05T14:25:59.875Z,49.73
2022-08-05T14:29:16.489Z,50.20
2022-08-05T14:32:31.910Z,49.72
2022-08-05T14:35:50.380Z,49.51
2022-08-05T14:39:02.889Z,48.72
2022-08-05T14:42:29.374Z,48.75
2022-08-05T14:45:32.792Z,48.58
2022-08-05T14:48:49.323Z,49.08
2022-08-05T14:52:01.834Z,49.38
2022-08-05T14:55:16.354Z,49.32
2022-08-05T14:58:31.848Z,48.38
2022-08-05T15:01:48.703Z,48.86
2022-08-05T15:05:08.491Z,49.23
2022-08-05T15:08:58.353Z,49.63
2022-08-05T15:11:52.348Z,49.50
2022-08-05T15:14:50.746Z,49.17
2022-08-05T15:18:05.629Z,49.32
2022-08-05T15:21:20.925Z,49.94
2022-08-05T15:24:35.060Z,49.60
2022-08-05T15:27:52.269Z,49.59
2022-08-05T15:31:07.203Z,50.34
2022-08-05T15:34:32.216Z,50.26
2022-08-05T15:38:09.336Z,50.09
2022-08-05T15:41:04.466Z,49.11
2022-08-05T15:44:09.928Z,49.47
2022-08-05T15:47:23.883Z,49.63
2022-08-05T15:50:37.770Z,49.66
2022-08-05T15:53:52.559Z,50.64
2022-08-05T15:57:07.463Z,50.54
2022-08-05T16:00:26.167Z,50.79
2022-08-05T16:03:41.038Z,50.32
2022-08-05T16:06:53.701Z,50.18
2022-08-05T16:10:11.493Z,50.49
2022-08-05T16:13:32.030Z,49.95
2022-08-05T16:16:40.407Z,50.33
2022-08-05T16:20:04.778Z,50.25
2022-08-05T16:23:09.523Z,50.29
2022-08-05T16:26:26.479Z,50.77
2022-08-05T16:29:40.006Z,51.33
2022-08-05T16:32:56.941Z,51.61
2022-08-05T16:36:11.502Z,51.84
2022-08-05T16:40:04.841Z,51.15
2022-08-05T16:42:41.010Z,51.00
2022-08-05T16:46:04.754Z,51.25
2022-08-05T16:49:12.990Z,51.83
2022-08-05T16:52:32.603Z,52.20
2022-08-05T16:55:46.396Z,52.25
2022-08-05T16:59:07.513Z,51.98
2022-08-05T17:02:16.123Z,52.13
2022-08-05T17:05:31.709Z,52.39
2022-08-05T17:08:53.077Z,52.13
2022-08-05T17:12:04.249Z,52.81
2022-08-05T17:15:19.360Z,52.98
2022-08-05T17:18:33.711Z,53.58
2022-08-05T17:21:51.578Z,53.22
2022-08-05T17:25:22.306Z,53.92
2022-08-05T17:28:20.796Z,54.29
2022-08-05T17:31:41.284Z,54.77
2022-08-05T17:34:52.263Z,54.87
2022-08-05T17:38:07.150Z,55.49
2022-08-05T17:42:17.323Z,55.89
2022-08-05T17:44:37.719Z,56.70
2022-08-05T17:47:55.736Z,57.12
2022-08-05T17:51:09.182Z,57.37
2022-08-05T17:54:23.929Z,57.59
2022-08-05T17:57:37.720Z,58.22
2022-08-05T18:00:54.160Z,58.79
2022-08-05T18:04:11.752Z,58.67
2022-08-05T18:07:25.551Z,59.27
2022-08-05T18:10:40.893Z,59.28
2022-08-05T18:13:56.723Z,59.67
2022-08-05T18:18:01.654Z,64.60
2022-08-05T18:20:31.582Z,60.97
2022-08-05T18:23:45.929Z,64.32
2022-08-05T18:27:00.148Z,68.88
2022-08-05T18:30:15.723Z,66.96
2022-08-05T18:33:46.566Z,68.24
2022-08-05T18:36:46.092Z,72.93
2022-08-05T18:40:34.070Z,77.24
2022-08-05T18:43:17.274Z,81.24
2022-08-05T18:46:32.211Z,87.64
2022-08-05T18:50:00.425Z,86.18
2022-08-05T18:53:20.834Z,86.99
2022-08-05T18:56:31.388Z,86.67
2022-08-05T19:00:01.462Z,93.11
2022-08-05T19:03:04.761Z,90.99
2022-08-05T19:06:22.361Z,92.66
2022-08-05T19:09:40.211Z,99.05
2022-08-05T19:12:50.787Z,99.52
2022-08-05T19:16:04.723Z,100.00
2022-08-05T19:19:20.969Z,100.00
2022-08-05T19:22:33.887Z,100.00
2022-08-05T19:25:50.782Z,100.00
2022-08-05T19:29:06.991Z,100.00
2022-08-05T19:32:26.130Z,100.00
2022-08-05T19:35:56.389Z,100.00
2022-08-05T19:38:58.997Z,100.00
2022-08-05T19:42:15.131Z,100.00
2022-08-05T19:45:30.568Z,100.00
2022-08-05T19:48:44.828Z,100.00
2022-08-05T19:52:08.505Z,100.00
2022-08-05T19:56:14.416Z,100.00
2022-08-05T19:58:53.412Z,100.00
2022-08-05T20:01:49.979Z,100.00
2022-08-05T20:05:04.991Z,100.00
2022-08-05T20:08:20.446Z,100.00
2022-08-05T20:11:37.736Z,100.00
2022-08-05T20:14:52.858Z,100.00
2022-08-05T20:18:33.721Z,100.00
2022-08-05T20:21:26.698Z,100.00
2022-08-05T20:24:40.759Z,100.00
2022-08-05T20:27:54.284Z,100.00
2022-08-05T20:31:11.322Z,100.00
2022-08-05T20:34:24.931Z,100.00
2022-08-05T20:38:05.759Z,100.00
2022-08-05T20:40:54.097Z,100.00
2022-08-05T20:44:19.101Z,100.00
2022-08-05T20:47:31.670Z,100.00
2022-08-05T20:50:42.573Z,100.00
2022-08-05T20:54:01.255Z,100.00
2022-08-05T20:57:14.307Z,100.00
2022-08-05T21:00:41.204Z,100.00
2022-08-05T21:03:47.963Z,100.00
2022-08-05T21:06:59.031Z,100.00
2022-08-05T21:10:14.176Z,100.00
2022-08-05T21:13:48.021Z,100.00
2022-08-05T21:16:44.720Z,100.00
2022-08-05T21:19:58.695Z,100.00
2022-08-05T21:23:13.476Z,100.00
2022-08-05T21:26:29.508Z,100.00
2022-08-05T21:29:48.242Z,100.00
2022-08-05T21:32:59.048Z,100.00
2022-08-05T21:36:13.164Z,100.00
2022-08-05T21:39:29.519Z,100.00
2022-08-05T21:42:45.118Z,100.00
2022-08-05T21:46:00.474Z,100.00
2022-08-05T21:49:48.301Z,100.00
2022-08-05T21:52:29.953Z,100.00
2022-08-05T21:56:05.247Z,100.00
2022-08-05T21:59:00.677Z,100.00
2022-08-05T22:02:16.057Z,100.00
2022-08-05T22:05:29.977Z,100.00
2022-08-05T22:08:45.459Z,100.00
2022-08-05T22:12:00.922Z,100.00
2022-08-05T22:15:56.658Z,100.00
2022-08-05T22:18:34.615Z,100.00
2022-08-05T22:21:48.140Z,100.00
2022-08-05T22:25:21.292Z,100.00
2022-08-05T22:28:33.056Z,100.00
2022-08-05T22:31:55.140Z,100.00
2022-08-05T22:35:04.619Z,100.00
2022-08-05T22:38:19.683Z,100.00
2022-08-05T22:42:11.043Z,100.00
2022-08-05T22:44:56.472Z,100.00
2022-08-05T22:48:05.339Z,100.00
2022-08-05T22:51:22.740Z,100.00
2022-08-05T22:54:37.807Z,100.00
2022-08-05T22:57:52.587Z,100.00
2022-08-05T23:01:06.612Z,100.00
2022-08-05T23:04:20.335Z,100.00
2022-08-05T23:07:45.473Z,100.00
2022-08-05T23:10:54.702Z,100.00
2022-08-05T23:14:05.777Z,100.00
2022-08-05T23:17:34.656Z,100.00
2022-08-05T23:20:45.662Z,100.00
2022-08-05T23:23:59.202Z,100.00
2022-08-05T23:27:13.240Z,100.00
2022-08-05T23:30:29.148Z,100.00
2022-08-05T23:34:03.276Z,100.00
2022-08-05T23:36:58.963Z,100.00
2022-08-05T23:40:14.831Z,100.00
2022-08-05T23:44:03.182Z,100.00
2022-08-05T23:46:45.100Z,100.00
2022-08-05T23:49:58.745Z,100.00
2022-08-05T23:53:22.588Z,100.00
2022-08-05T23:56:29.235Z,100.00
